createdAt,value
2019-02-27T00:01:55.870Z,17.63
2019-02-27T00:04:25.947Z,17.40
2019-02-27T00:06:56.045Z,16.00
2019-02-27T00:09:27.916Z,16.40
2019-02-27T00:11:58.030Z,15.80
2019-02-27T00:14:47.129Z,16.53
2019-02-27T00:17:18.227Z,17.83
2019-02-27T00:19:48.877Z,17.90
2019-02-27T00:22:19.232Z,18.20
2019-02-27T00:24:49.300Z,21.13
2019-02-27T00:27:19.518Z,21.77
2019-02-27T00:29:49.605Z,19.77
2019-02-27T00:32:20.223Z,22.93
2019-02-27T00:34:50.233Z,19.97
2019-02-27T00:37:20.271Z,18.03
2019-02-27T00:39:50.313Z,17.47
2019-02-27T00:42:22.858Z,17.97
2019-02-27T00:44:52.242Z,16.67
2019-02-27T00:47:22.284Z,17.57
2019-02-27T00:49:52.282Z,20.00
2019-02-27T00:52:22.321Z,18.27
2019-02-27T00:54:52.330Z,19.03
2019-02-27T00:57:22.384Z,18.17
2019-02-27T00:59:52.398Z,16.60
2019-02-27T01:02:22.432Z,19.50
2019-02-27T01:04:52.451Z,18.10
2019-02-27T01:07:22.469Z,18.63
2019-02-27T01:09:52.524Z,19.77
2019-02-27T01:12:22.867Z,20.87
2019-02-27T01:14:54.459Z,21.57
2019-02-27T01:17:24.535Z,20.67
2019-02-27T01:19:54.691Z,19.97
2019-02-27T01:22:24.728Z,21.10
2019-02-27T01:24:55.812Z,20.23
2019-02-27T01:27:25.938Z,21.57
2019-02-27T01:29:55.990Z,17.37
2019-02-27T01:32:26.185Z,21.10
2019-02-27T01:34:56.239Z,18.23
2019-02-27T01:37:31.259Z,17.77
2019-02-27T01:39:58.013Z,20.60
2019-02-27T01:42:31.991Z,19.27
2019-02-27T01:44:59.807Z,18.43
2019-02-27T01:47:29.811Z,20.53
2019-02-27T01:49:59.906Z,17.40
2019-02-27T01:52:33.962Z,19.07
2019-02-27T01:55:01.695Z,23.93
2019-02-27T01:57:34.129Z,20.63
2019-02-27T02:00:03.457Z,19.77
2019-02-27T02:02:34.944Z,17.73
2019-02-27T02:05:05.642Z,20.20
2019-02-27T02:07:39.911Z,20.37
2019-02-27T02:10:08.832Z,19.27
2019-02-27T02:12:39.104Z,24.07
2019-02-27T02:15:21.463Z,23.63
2019-02-27T02:18:48.123Z,21.70
2019-02-27T02:22:14.183Z,21.90
2019-02-27T02:25:48.380Z,23.87
2019-02-27T02:28:42.843Z,23.90
2019-02-27T02:31:50.035Z,22.77
2019-02-27T02:34:55.193Z,23.17
2019-02-27T02:37:48.369Z,24.30
2019-02-27T02:41:30.128Z,23.40
2019-02-27T02:44:13.429Z,24.10
2019-02-27T02:47:21.537Z,23.50
2019-02-27T02:50:26.362Z,18.80
2019-02-27T02:53:33.478Z,21.73
2019-02-27T02:56:36.820Z,22.37
2019-02-27T02:59:53.142Z,22.70
2019-02-27T03:03:02.115Z,22.83
2019-02-27T03:06:08.252Z,23.63
2019-02-27T03:08:48.322Z,23.70
2019-02-27T03:12:01.708Z,24.67
2019-02-27T03:15:12.661Z,25.27
2019-02-27T03:18:18.785Z,28.03
2019-02-27T03:21:01.403Z,29.50
2019-02-27T03:24:12.280Z,29.00
2019-02-27T03:27:32.786Z,25.50
2019-02-27T03:30:36.291Z,27.13
2019-02-27T03:33:53.393Z,27.10
2019-02-27T03:37:13.482Z,25.13
2019-02-27T03:40:35.951Z,24.63
2019-02-27T03:43:31.811Z,25.67
2019-02-27T03:46:20.198Z,23.87
2019-02-27T03:49:31.701Z,24.43
2019-02-27T03:52:45.578Z,23.17
2019-02-27T03:55:34.983Z,25.20
2019-02-27T03:58:31.515Z,23.40
2019-02-27T04:01:30.675Z,25.57
2019-02-27T04:04:40.827Z,34.13
2019-02-27T04:07:54.507Z,30.57
2019-02-27T04:10:30.835Z,32.53
2019-02-27T04:12:57.589Z,35.87
2019-02-27T04:15:27.711Z,33.87
2019-02-27T04:17:56.157Z,36.13
2019-02-27T04:20:26.164Z,33.00
2019-02-27T04:22:56.169Z,33.77
2019-02-27T04:25:31.344Z,35.30
2019-02-27T04:28:00.243Z,31.37
2019-02-27T04:30:30.237Z,32.03
2019-02-27T04:33:02.063Z,30.30
2019-02-27T04:35:32.858Z,29.87
2019-02-27T04:38:03.768Z,30.70
2019-02-27T04:40:33.764Z,29.87
2019-02-27T04:43:03.841Z,28.47
2019-02-27T04:45:34.069Z,27.73
2019-02-27T04:48:06.923Z,27.63
2019-02-27T04:50:36.925Z,26.73
2019-02-27T04:53:06.935Z,25.67
2019-02-27T04:55:38.744Z,26.80
2019-02-27T04:58:09.547Z,33.87
2019-02-27T05:00:39.760Z,30.87
2019-02-27T05:03:09.820Z,29.57
2019-02-27T05:05:41.408Z,27.53
2019-02-27T05:08:12.484Z,27.80
2019-02-27T05:10:42.482Z,27.23
2019-02-27T05:13:12.483Z,31.60
2019-02-27T05:15:42.485Z,30.03
2019-02-27T05:18:12.522Z,30.80
2019-02-27T05:20:45.067Z,34.97
2019-02-27T05:23:14.433Z,36.80
2019-02-27T05:25:44.443Z,35.57
2019-02-27T05:28:14.474Z,34.77
2019-02-27T05:30:45.229Z,33.13
2019-02-27T05:33:16.567Z,38.63
2019-02-27T05:35:47.854Z,33.97
2019-02-27T05:38:17.938Z,31.07
2019-02-27T05:40:48.006Z,29.87
2019-02-27T05:43:20.120Z,28.00
2019-02-27T05:45:51.401Z,32.73
2019-02-27T05:48:21.422Z,36.57
2019-02-27T05:50:51.555Z,35.13
2019-02-27T05:53:22.924Z,33.07
2019-02-27T05:55:53.298Z,35.03
2019-02-27T05:58:23.597Z,31.73
2019-02-27T06:00:53.760Z,32.40
2019-02-27T06:03:24.525Z,37.17
2019-02-27T06:05:54.717Z,35.03
2019-02-27T06:08:24.724Z,32.07
2019-02-27T06:10:56.087Z,34.23
2019-02-27T06:13:26.216Z,31.73
2019-02-27T06:15:56.215Z,33.90
2019-02-27T06:18:26.227Z,30.60
2019-02-27T06:20:56.276Z,31.77
2019-02-27T06:23:26.432Z,34.03
2019-02-27T06:25:59.578Z,30.70
2019-02-27T06:28:28.426Z,26.27
2019-02-27T06:30:58.410Z,26.30
2019-02-27T06:33:28.466Z,25.03
2019-02-27T06:35:58.654Z,28.53
2019-02-27T06:38:28.707Z,31.80
2019-02-27T06:40:59.475Z,25.73
2019-02-27T06:43:31.367Z,29.40
2019-02-27T06:46:01.390Z,29.63
2019-02-27T06:48:31.444Z,27.50
2019-02-27T06:51:01.635Z,29.87
2019-02-27T06:53:31.814Z,30.13
2019-02-27T06:56:03.471Z,31.53
2019-02-27T06:58:33.676Z,32.67
2019-02-27T07:01:03.788Z,31.13
2019-02-27T07:03:33.860Z,29.83
2019-02-27T07:06:03.886Z,30.50
2019-02-27T07:08:37.910Z,31.97
2019-02-27T07:11:10.642Z,30.77
2019-02-27T07:13:37.418Z,29.40
2019-02-27T07:16:07.506Z,29.40
2019-02-27T07:18:41.472Z,28.17
2019-02-27T07:21:09.591Z,32.87
2019-02-27T07:23:39.596Z,29.33
2019-02-27T07:26:09.613Z,29.80
2019-02-27T07:28:43.373Z,32.17
2019-02-27T07:31:12.493Z,31.57
2019-02-27T07:33:42.703Z,35.97
2019-02-27T07:36:12.846Z,42.33
2019-02-27T07:38:42.828Z,37.87
2019-02-27T07:41:17.571Z,34.10
2019-02-27T07:43:44.601Z,29.60
2019-02-27T07:46:14.766Z,36.73
2019-02-27T07:48:44.891Z,34.60
2019-02-27T07:51:15.111Z,32.53
2019-02-27T07:53:45.180Z,30.97
2019-02-27T07:56:15.246Z,29.83
2019-02-27T07:58:45.255Z,27.80
2019-02-27T08:01:15.339Z,29.60
2019-02-27T08:03:45.817Z,28.57
2019-02-27T08:06:16.059Z,36.33
2019-02-27T08:08:46.066Z,31.67
2019-02-27T08:11:16.430Z,26.87
2019-02-27T08:13:48.177Z,26.50
2019-02-27T08:16:19.400Z,27.57
2019-02-27T08:18:49.399Z,22.30
2019-02-27T08:21:19.439Z,21.00
2019-02-27T08:23:49.849Z,24.77
2019-02-27T08:26:19.866Z,19.93
2019-02-27T08:28:49.978Z,18.33
2019-02-27T08:31:19.987Z,18.53
2019-02-27T08:33:50.425Z,16.27
2019-02-27T08:36:20.883Z,16.67
2019-02-27T08:38:50.889Z,17.93
2019-02-27T08:41:21.025Z,18.47
2019-02-27T08:43:51.099Z,16.27
2019-02-27T08:46:21.118Z,16.53
2019-02-27T08:48:51.127Z,16.57
2019-02-27T08:51:21.323Z,17.73
2019-02-27T08:53:51.310Z,16.67
2019-02-27T08:56:21.347Z,11.73
2019-02-27T08:58:51.483Z,13.40
2019-02-27T09:01:22.328Z,18.17
2019-02-27T09:03:52.598Z,15.27
2019-02-27T09:06:27.310Z,21.93
2019-02-27T09:08:54.421Z,13.57
2019-02-27T09:11:24.522Z,12.60
2019-02-27T09:13:54.595Z,13.73
2019-02-27T09:16:26.029Z,13.17
2019-02-27T09:18:59.847Z,12.27
2019-02-27T09:21:29.885Z,12.33
2019-02-27T09:23:59.877Z,12.37
2019-02-27T09:26:29.887Z,11.03
2019-02-27T09:28:59.886Z,12.57
2019-02-27T09:31:29.914Z,11.73
2019-02-27T09:34:00.076Z,11.00
2019-02-27T09:36:30.124Z,11.93
2019-02-27T09:39:00.126Z,12.03
2019-02-27T09:41:30.446Z,11.00
2019-02-27T09:44:04.340Z,11.60
2019-02-27T09:46:34.491Z,10.70
2019-02-27T09:49:06.813Z,11.60
2019-02-27T09:51:36.411Z,11.50
2019-02-27T09:54:08.126Z,10.20
2019-02-27T09:56:38.718Z,11.37
2019-02-27T09:59:08.896Z,10.13
2019-02-27T10:01:39.070Z,12.83
2019-02-27T10:04:09.729Z,10.47
2019-02-27T10:06:40.481Z,13.30
2019-02-27T10:09:17.545Z,10.83
2019-02-27T10:11:47.730Z,9.30
2019-02-27T10:14:17.955Z,11.77
2019-02-27T10:16:48.048Z,10.90
2019-02-27T10:19:19.782Z,12.03
2019-02-27T10:21:49.832Z,11.63
2019-02-27T10:24:19.941Z,11.57
2019-02-27T10:26:49.963Z,13.50
2019-02-27T10:29:20.059Z,10.50
2019-02-27T10:31:50.112Z,12.07
2019-02-27T10:34:23.148Z,11.90
2019-02-27T10:36:53.166Z,13.47
2019-02-27T10:39:23.344Z,13.47
2019-02-27T10:41:53.354Z,13.03
2019-02-27T10:44:23.363Z,14.23
2019-02-27T10:46:53.427Z,10.60
2019-02-27T10:49:23.529Z,13.47
2019-02-27T10:51:53.567Z,12.53
2019-02-27T10:54:23.557Z,12.73
2019-02-27T10:56:56.346Z,10.97
2019-02-27T10:59:25.676Z,14.50
2019-02-27T11:01:55.704Z,11.50
2019-02-27T11:04:25.777Z,12.87
2019-02-27T11:06:58.616Z,11.33
2019-02-27T11:09:29.360Z,14.00
2019-02-27T11:11:59.411Z,13.30
2019-02-27T11:14:32.141Z,15.10
2019-02-27T11:17:02.698Z,14.67
2019-02-27T11:19:34.818Z,13.50
2019-02-27T11:22:04.820Z,14.90
2019-02-27T11:24:36.104Z,12.67
2019-02-27T11:27:06.904Z,15.13
2019-02-27T11:29:36.964Z,14.07
2019-02-27T11:32:07.013Z,13.83
2019-02-27T11:34:37.069Z,14.00
2019-02-27T11:37:07.122Z,14.60
2019-02-27T11:39:37.151Z,14.70
2019-02-27T11:42:07.655Z,15.77
2019-02-27T11:44:37.842Z,14.47
2019-02-27T11:47:10.950Z,15.33
2019-02-27T11:49:39.632Z,16.30
2019-02-27T11:52:09.643Z,14.67
2019-02-27T11:54:42.951Z,15.37
2019-02-27T11:57:11.783Z,15.43
2019-02-27T11:59:41.813Z,16.70
2019-02-27T12:02:11.838Z,15.47
2019-02-27T12:04:41.871Z,17.13
2019-02-27T12:07:12.362Z,13.43
2019-02-27T12:09:42.730Z,16.17
2019-02-27T12:12:12.882Z,14.93
2019-02-27T12:14:42.947Z,14.73
2019-02-27T12:17:12.997Z,17.03
2019-02-27T12:19:45.204Z,17.00
2019-02-27T12:22:16.556Z,14.13
2019-02-27T12:24:46.714Z,16.23
2019-02-27T12:27:25.726Z,15.40
2019-02-27T12:29:48.433Z,15.33
2019-02-27T12:32:19.398Z,13.37
2019-02-27T12:34:50.642Z,17.00
2019-02-27T12:37:28.052Z,15.57
2019-02-27T12:39:52.489Z,16.53
2019-02-27T12:42:22.519Z,16.83
2019-02-27T12:44:54.626Z,14.77
2019-02-27T12:47:25.124Z,14.53
2019-02-27T12:49:55.135Z,14.77
2019-02-27T12:52:25.245Z,16.07
2019-02-27T12:54:55.263Z,15.03
2019-02-27T12:57:25.375Z,15.63
2019-02-27T12:59:55.442Z,15.30
2019-02-27T13:02:35.274Z,19.43
2019-02-27T13:04:58.469Z,15.57
2019-02-27T13:07:28.514Z,17.83
2019-02-27T13:09:59.376Z,15.13
2019-02-27T13:12:29.581Z,14.87
2019-02-27T13:14:59.577Z,16.57
2019-02-27T13:17:29.781Z,15.90
2019-02-27T13:19:59.934Z,17.63
2019-02-27T13:22:31.637Z,16.60
2019-02-27T13:25:01.700Z,17.57
2019-02-27T13:27:32.493Z,19.10
2019-02-27T13:30:08.595Z,17.97
2019-02-27T13:32:34.389Z,22.43
2019-02-27T13:35:06.638Z,21.77
2019-02-27T13:37:36.904Z,18.73
2019-02-27T13:40:09.344Z,23.23
2019-02-27T13:42:40.550Z,18.07
2019-02-27T13:45:13.501Z,18.70
2019-02-27T13:47:43.950Z,19.57
2019-02-27T13:50:16.773Z,21.77
2019-02-27T13:52:49.890Z,17.90
2019-02-27T13:55:19.015Z,19.60
2019-02-27T13:57:49.030Z,18.70
2019-02-27T14:00:21.694Z,19.03
2019-02-27T14:02:51.864Z,19.93
2019-02-27T14:05:22.020Z,20.97
2019-02-27T14:07:57.283Z,19.03
2019-02-27T14:10:25.495Z,23.80
2019-02-27T14:12:55.556Z,23.77
2019-02-27T14:15:28.208Z,24.43
2019-02-27T14:17:58.458Z,24.07
2019-02-27T14:20:29.203Z,22.47
2019-02-27T14:22:59.563Z,28.07
2019-02-27T14:25:33.078Z,25.80
2019-02-27T14:28:01.381Z,25.50
2019-02-27T14:30:35.475Z,23.07
2019-02-27T14:33:06.086Z,25.57
2019-02-27T14:35:36.621Z,26.33
2019-02-27T14:38:06.876Z,20.27
2019-02-27T14:40:40.087Z,23.60
2019-02-27T14:43:08.715Z,25.67
2019-02-27T14:45:40.733Z,24.37
2019-02-27T14:48:10.611Z,25.70
2019-02-27T14:50:40.770Z,22.13
2019-02-27T14:53:10.778Z,25.37
2019-02-27T14:55:40.783Z,26.40
2019-02-27T14:58:10.834Z,23.20
2019-02-27T15:00:41.190Z,23.40
2019-02-27T15:03:12.219Z,20.90
2019-02-27T15:05:44.734Z,22.47
2019-02-27T15:08:14.128Z,22.43
2019-02-27T15:10:44.144Z,25.73
2019-02-27T15:13:18.509Z,21.47
2019-02-27T15:15:48.608Z,26.50
2019-02-27T15:18:18.671Z,23.93
2019-02-27T15:20:48.691Z,23.43
2019-02-27T15:23:18.750Z,22.27
2019-02-27T15:25:48.876Z,22.03
2019-02-27T15:28:19.026Z,22.33
2019-02-27T15:30:49.052Z,23.33
2019-02-27T15:33:39.051Z,22.60
2019-02-27T15:36:09.258Z,23.87
2019-02-27T15:38:39.442Z,27.93
2019-02-27T15:41:09.480Z,24.37
2019-02-27T15:43:39.520Z,23.93
2019-02-27T15:46:09.529Z,22.33
2019-02-27T15:48:40.861Z,22.40
2019-02-27T15:51:11.325Z,23.40
2019-02-27T15:53:41.773Z,22.60
2019-02-27T15:56:11.870Z,22.73
2019-02-27T15:58:41.926Z,25.73
2019-02-27T16:01:12.037Z,25.20
2019-02-27T16:03:45.535Z,26.67
2019-02-27T16:06:14.222Z,27.13
2019-02-27T16:08:44.271Z,27.00
2019-02-27T16:11:16.580Z,24.00
2019-02-27T16:13:46.543Z,23.90
2019-02-27T16:16:22.280Z,24.77
2019-02-27T16:18:49.449Z,27.57
2019-02-27T16:21:20.942Z,25.53
2019-02-27T16:23:51.400Z,22.40
2019-02-27T16:26:21.422Z,24.43
2019-02-27T16:28:51.459Z,22.73
2019-02-27T16:31:21.521Z,24.23
2019-02-27T16:33:51.614Z,24.33
2019-02-27T16:36:23.414Z,22.90
2019-02-27T16:38:54.042Z,22.93
2019-02-27T16:41:27.924Z,23.57
2019-02-27T16:43:55.742Z,22.63
2019-02-27T16:46:25.755Z,27.23
2019-02-27T16:48:55.796Z,26.50
2019-02-27T16:51:26.984Z,23.80
2019-02-27T16:53:57.947Z,25.90
2019-02-27T16:56:28.354Z,26.07
2019-02-27T16:58:58.475Z,24.07
2019-02-27T17:01:29.571Z,24.93
2019-02-27T17:04:00.691Z,25.23
2019-02-27T17:06:33.590Z,26.70
2019-02-27T17:09:07.238Z,24.30
2019-02-27T17:11:36.788Z,24.97
2019-02-27T17:14:06.901Z,25.30
2019-02-27T17:16:38.863Z,24.57
2019-02-27T17:19:09.071Z,23.00
2019-02-27T17:21:39.042Z,30.70
2019-02-27T17:24:09.172Z,30.27
2019-02-27T17:26:39.843Z,25.57
2019-02-27T17:29:10.010Z,24.70
2019-02-27T17:31:48.775Z,24.83
2019-02-27T17:34:13.759Z,26.80
2019-02-27T17:36:43.582Z,24.77
2019-02-27T17:39:13.612Z,29.57
2019-02-27T17:41:44.664Z,28.07
2019-02-27T17:44:15.404Z,32.30
2019-02-27T17:46:45.430Z,30.33
2019-02-27T17:49:15.527Z,26.47
2019-02-27T17:51:45.526Z,23.73
2019-02-27T17:54:15.551Z,25.93
2019-02-27T17:56:47.202Z,27.93
2019-02-27T17:59:17.348Z,24.03
2019-02-27T18:01:47.397Z,25.10
2019-02-27T18:04:17.501Z,31.53
2019-02-27T18:06:47.528Z,30.23
2019-02-27T18:09:17.687Z,28.23
2019-02-27T18:11:49.418Z,29.90
2019-02-27T18:14:20.367Z,29.17
2019-02-27T18:16:50.521Z,31.67
2019-02-27T18:19:20.635Z,29.97
2019-02-27T18:21:50.657Z,26.10
2019-02-27T18:24:22.210Z,28.03
2019-02-27T18:26:52.301Z,28.00
2019-02-27T18:29:22.346Z,25.60
2019-02-27T18:31:52.398Z,30.80
2019-02-27T18:34:22.615Z,28.73
2019-02-27T18:36:52.765Z,28.10
2019-02-27T18:39:22.964Z,30.87
2019-02-27T18:41:53.037Z,29.90
2019-02-27T18:44:23.074Z,29.73
2019-02-27T18:46:53.083Z,31.57
2019-02-27T18:49:23.238Z,30.73
2019-02-27T18:51:53.320Z,29.23
2019-02-27T18:54:25.183Z,27.23
2019-02-27T18:56:56.307Z,28.50
2019-02-27T18:59:29.377Z,29.10
2019-02-27T19:01:58.268Z,29.20
2019-02-27T19:04:35.011Z,30.03
2019-02-27T19:07:01.682Z,33.20
2019-02-27T19:09:32.476Z,29.03
2019-02-27T19:12:03.416Z,31.13
2019-02-27T19:14:33.526Z,28.77
2019-02-27T19:17:03.619Z,31.23
2019-02-27T19:19:35.129Z,31.03
2019-02-27T19:22:07.990Z,30.10
2019-02-27T19:24:36.955Z,29.43
2019-02-27T19:27:11.262Z,32.43
2019-02-27T19:29:41.376Z,32.83
2019-02-27T19:32:11.450Z,32.23
2019-02-27T19:34:44.449Z,31.07
2019-02-27T19:37:13.232Z,29.13
2019-02-27T19:39:43.332Z,31.40
2019-02-27T19:42:13.945Z,29.77
2019-02-27T19:44:45.246Z,28.80
2019-02-27T19:47:15.256Z,37.63
2019-02-27T19:49:45.303Z,34.33
2019-02-27T19:52:29.634Z,31.80
2019-02-27T19:54:58.917Z,33.87
2019-02-27T19:57:28.951Z,33.50
2019-02-27T19:59:59.738Z,28.23
2019-02-27T20:02:29.885Z,33.10
2019-02-27T20:04:59.967Z,29.57
2019-02-27T20:07:30.083Z,28.07
2019-02-27T20:10:00.287Z,32.60
2019-02-27T20:12:30.491Z,29.37
2019-02-27T20:15:00.581Z,31.00
2019-02-27T20:17:32.963Z,28.97
2019-02-27T20:20:04.139Z,31.43
2019-02-27T20:22:34.300Z,33.63
2019-02-27T20:25:06.499Z,33.60
2019-02-27T20:27:38.521Z,28.70
2019-02-27T20:30:14.116Z,31.50
2019-02-27T20:32:43.221Z,33.50
2019-02-27T20:35:13.346Z,31.07
2019-02-27T20:37:43.354Z,33.10
2019-02-27T20:40:13.625Z,30.40
2019-02-27T20:42:43.860Z,28.10
2019-02-27T20:45:16.809Z,30.17
2019-02-27T20:47:46.939Z,31.03
2019-02-27T20:50:34.188Z,30.93
2019-02-27T20:52:56.788Z,35.83
2019-02-27T20:55:26.881Z,30.87
2019-02-27T20:57:56.920Z,31.53
2019-02-27T21:00:27.016Z,31.70
2019-02-27T21:02:57.189Z,32.63
2019-02-27T21:05:27.676Z,31.60
2019-02-27T21:08:05.564Z,33.40
2019-02-27T21:10:35.577Z,36.13
2019-02-27T21:13:24.723Z,34.53
2019-02-27T21:15:54.843Z,37.53
2019-02-27T21:18:24.955Z,40.23
2019-02-27T21:20:54.973Z,44.67
2019-02-27T21:23:25.095Z,41.23
2019-02-27T21:25:55.115Z,43.73
2019-02-27T21:28:25.289Z,40.33
2019-02-27T21:30:55.507Z,41.37
2019-02-27T21:33:25.630Z,39.80
2019-02-27T21:35:55.844Z,39.33
2019-02-27T21:38:28.754Z,39.53
2019-02-27T21:40:58.852Z,37.87
2019-02-27T21:43:28.891Z,35.40
2019-02-27T21:45:58.908Z,34.03
2019-02-27T21:48:29.066Z,39.50
2019-02-27T21:50:59.138Z,34.00
2019-02-27T21:53:30.753Z,32.33
2019-02-27T21:56:00.888Z,35.40
2019-02-27T21:58:32.836Z,37.67
2019-02-27T22:01:02.918Z,34.80
2019-02-27T22:03:35.180Z,40.20
2019-02-27T22:06:04.662Z,34.07
2019-02-27T22:08:36.121Z,52.43
2019-02-27T22:11:06.488Z,41.43
2019-02-27T22:13:36.660Z,45.60
2019-02-27T22:16:07.097Z,46.33
2019-02-27T22:18:37.189Z,42.43
2019-02-27T22:21:07.255Z,43.40
2019-02-27T22:23:37.430Z,43.33
2019-02-27T22:26:07.427Z,41.30
2019-02-27T22:28:37.472Z,44.33
2019-02-27T22:31:07.743Z,42.80
2019-02-27T22:33:37.924Z,43.37
2019-02-27T22:36:12.321Z,43.77
2019-02-27T22:38:46.444Z,43.07
2019-02-27T22:41:16.791Z,43.40
2019-02-27T22:43:46.871Z,47.03
2019-02-27T22:46:17.168Z,42.40
2019-02-27T22:48:47.445Z,47.80
2019-02-27T22:51:17.458Z,41.30
2019-02-27T22:53:47.981Z,44.13
2019-02-27T22:56:17.995Z,46.93
2019-02-27T22:58:51.530Z,49.10
2019-02-27T23:01:28.402Z,50.57
2019-02-27T23:04:01.349Z,45.03
2019-02-27T23:06:31.363Z,51.00
2019-02-27T23:09:01.449Z,48.07
2019-02-27T23:11:36.296Z,51.23
2019-02-27T23:14:03.705Z,45.40
2019-02-27T23:16:33.711Z,46.70
2019-02-27T23:19:03.961Z,47.43
2019-02-27T23:21:33.991Z,44.43
2019-02-27T23:24:04.046Z,44.97
2019-02-27T23:26:34.213Z,45.60
2019-02-27T23:29:05.585Z,42.47
2019-02-27T23:31:35.955Z,43.87
2019-02-27T23:34:07.891Z,42.97
2019-02-27T23:36:37.802Z,49.63
2019-02-27T23:39:09.481Z,51.90
2019-02-27T23:41:39.625Z,50.13
2019-02-27T23:44:09.682Z,51.70
2019-02-27T23:46:48.440Z,49.60
2019-02-27T23:49:11.531Z,44.07
2019-02-27T23:51:41.653Z,46.17
2019-02-27T23:54:11.702Z,42.13
2019-02-27T23:56:41.707Z,40.23
2019-02-27T23:59:11.761Z,43.13
